Domov               UVHVVR             MKGP            O straneh              
ZDRAVSTVENO VARSTVO RASTLIN
  MREŽA AGROMET. POSTAJ
 ► PROGNOSTIČNA OBVESTILA
AGROMETEOROLOŠKI PODATKI -
ARSO
OBVLADOVANJE TVEGANJ ZARADI
NEUGODNIH VREMENSKIH RAZMER
  ► NARAVNE NESREČE
  ► SUŠA/MOČA
  ► NAMAKANJE
  ► ŽLED (gozdarstvo)
KARTOGRAFSKI PRIKAZI
SPLETNE POVEZAVE
PROJEKTI IN PUBLIKACIJE

AGROMETEOROLOŠKA MREŽA: VREMENSKE POSTAJE IN FENOLOŠKA OPAZOVANJA

Pregled podatkov za lokacijo Tacen, meteorološka postaja 27389

Pregled senzorjev na lokaciji

ID Ime Zadnja
vrednost
Datum
zadnje
spremembe
Tip
senzorja
2222 Padavine (mm) 0 mm 20.6.2018 16:30 Generic 0.2 mm
2225 Relativna vlaga 2 m (% RH) 42,83 % RH 20.6.2018 16:30 Generic 0 - 100 %
2226 Temperatura 2 m (°C) 30,43 °C 20.6.2018 16:30 Generic -40 - +60 °C
4267 Smer vetra (°) 14,15 ° 20.6.2018 16:30 Generic 0 - 360
4266 Hitrost vetra (km/h) 0,2 km/h 20.6.2018 16:30 Generic 200 km/h

Pregled podatkov zadnjih 24 ur

Zap.
št.
Datum in čas Tacen
Padavine Relativna
vlaga
2
m
Temperatura
2
m
Smer
vetra
Hitrost
vetra
1 20.6.2018 16:30
2 20.6.2018 16:00
3 20.6.2018 15:30 0 42,8 30,4 14,2 0,2
4 20.6.2018 15:00 0 44,2 30 10,2 0,2
5 20.6.2018 14:30 0 42,6 29,7 18 0,2
6 20.6.2018 14:00 0 43,3 29,3 18,2 0,2
7 20.6.2018 13:30 0 42,9 28,9 4,7 0,2
8 20.6.2018 13:00 0 42,5 28,7 9 0,2
9 20.6.2018 12:30 0 44,2 28,5 4,6 0,2
10 20.6.2018 12:00 0 45,5 27,8 13,3 0,2
11 20.6.2018 11:30 0 46,2 27,9 3,5 0,2
12 20.6.2018 11:00 0 46,6 27,6 15,1 0,2
13 20.6.2018 10:30 0 49,4 26,6 17,1 0,2
14 20.6.2018 10:00 0 52 26,3 15,6 0,2
15 20.6.2018 09:30 0 53 25,7 12,3 0,2
16 20.6.2018 09:00 0 56,5 24,5 16,5 0,3
17 20.6.2018 08:30 0 61 23,9 29,5 0,4
18 20.6.2018 08:00 0 63 23,1 29 0,4
19 20.6.2018 07:30 0 75 19,7 30,1 0,2
20 20.6.2018 07:00 0 87,5 17,1 7,5 0,2
21 20.6.2018 06:30 0 91,5 15,9 7,8 0,2
22 20.6.2018 06:00 0 94,8 14,9 4,1 0,2
23 20.6.2018 05:30 0 97,1 14 11,3 0,2
24 20.6.2018 05:00 0 97,9 13,6 10,1 0,1
25 20.6.2018 04:30 0 98 13,2 10,6 0
26 20.6.2018 04:00 0 96,9 13,4 9,4 0,1
27 20.6.2018 03:30 0 95,6 13,8 8,1 0,1
28 20.6.2018 03:00 0 93,9 14,5 7,2 0,1
29 20.6.2018 02:30 0 93,2 14,8 11,8 0,2
30 20.6.2018 02:00 0 91,6 15,2 9,2 0,2
31 20.6.2018 01:30 0 88,1 16 8,9 0,2
32 20.6.2018 01:00 0 88,5 16 10 0,1
33 20.6.2018 00:30 0 87,2 16,4 9,3 0,2
34 20.6.2018 00:00 0 85,6 16,8 8,9 0,2
35 19.6.2018 23:30 0 89,7 15,9 8,4 0,1
36 19.6.2018 23:00 0 88,7 16,2 7,8 0,1
37 19.6.2018 22:30 0 88,1 16,5 8,8 0,1
38 19.6.2018 22:00 0 86,2 17 6,8 0
39 19.6.2018 21:30 0 85,4 17,3 7,3 0,1
40 19.6.2018 21:00 0 82,1 18 7,4 0,1
41 19.6.2018 20:30 0 77,2 19,1 6,7 0
42 19.6.2018 20:00 0 71,6 20,6 11,6 0
43 19.6.2018 19:30 0 58,6 22,9 12,2 0,1
44 19.6.2018 19:00 0 46,5 25,9 12 0,2
45 19.6.2018 18:30 0 42,1 27,4 4 0,2
46 19.6.2018 18:00 0 41,9 27,9 14,3 0,2
47 19.6.2018 17:30 0 41,7 28,3 14,6 0,2
48 19.6.2018 17:00 0 41,1 29,2 12,4 0,2
© 2011 Ministrstvo za kmetijstvo, gozdarstvo in prehrano. Vse pravice pridržane.